createdAt,value
2022-08-11T00:00:35.207Z,1.63
2022-08-11T00:01:17.496Z,1.50
2022-08-11T00:01:50.774Z,2.05
2022-08-11T00:02:30.687Z,2.90
2022-08-11T00:03:09.622Z,2.20
2022-08-11T00:03:48.898Z,2.13
2022-08-11T00:04:21.615Z,1.55
2022-08-11T00:04:54.574Z,1.70
2022-08-11T00:05:26.014Z,2.03
2022-08-11T00:05:57.817Z,2.22
2022-08-11T00:06:31.878Z,1.80
2022-08-11T00:07:04.227Z,2.00
2022-08-11T00:07:42.161Z,1.92
2022-08-11T00:08:22.921Z,2.05
2022-08-11T00:08:56.511Z,2.05
2022-08-11T00:09:32.101Z,1.80
2022-08-11T00:10:15.492Z,2.20
2022-08-11T00:10:51.506Z,1.77
2022-08-11T00:11:32.010Z,1.80
2022-08-11T00:12:04.506Z,1.80
2022-08-11T00:12:36.016Z,2.10
2022-08-11T00:13:07.855Z,1.90
2022-08-11T00:13:43.274Z,1.40
2022-08-11T00:14:14.668Z,1.88
2022-08-11T00:14:46.670Z,1.83
2022-08-11T00:15:18.158Z,1.85
2022-08-11T00:15:49.807Z,1.85
2022-08-11T00:16:22.365Z,2.10
2022-08-11T00:16:58.358Z,1.42
2022-08-11T00:17:31.179Z,1.40
2022-08-11T00:18:02.861Z,2.42
2022-08-11T00:18:39.536Z,2.15
2022-08-11T00:19:11.425Z,1.98
2022-08-11T00:20:14.462Z,1.75
2022-08-11T00:20:39.954Z,1.50
2022-08-11T00:21:11.907Z,1.90
2022-08-11T00:22:05.236Z,1.30
2022-08-11T00:22:38.191Z,1.88
2022-08-11T00:23:11.050Z,2.03
2022-08-11T00:23:43.963Z,1.80
2022-08-11T00:24:16.366Z,1.70
2022-08-11T00:24:53.357Z,2.05
2022-08-11T00:25:26.416Z,2.47
2022-08-11T00:25:58.775Z,1.88
2022-08-11T00:26:30.302Z,2.30
2022-08-11T00:27:01.936Z,1.92
2022-08-11T00:27:34.528Z,2.22
2022-08-11T00:28:23.017Z,2.05
2022-08-11T00:29:07.795Z,1.52
2022-08-11T00:29:51.657Z,1.60
2022-08-11T00:30:23.482Z,1.92
2022-08-11T00:30:55.995Z,1.85
2022-08-11T00:31:27.368Z,1.90
2022-08-11T00:32:00.209Z,2.33
2022-08-11T00:32:31.958Z,1.95
2022-08-11T00:33:04.073Z,1.70
2022-08-11T00:33:41.433Z,1.75
2022-08-11T00:34:18.457Z,1.27
2022-08-11T00:34:50.492Z,1.55
2022-08-11T00:35:52.506Z,2.30
2022-08-11T00:36:20.829Z,1.85
2022-08-11T00:37:01.141Z,2.60
2022-08-11T00:37:32.867Z,1.83
2022-08-11T00:38:04.756Z,2.13
2022-08-11T00:38:37.972Z,2.22
2022-08-11T00:39:10.383Z,2.35
2022-08-11T00:39:43.401Z,2.33
2022-08-11T00:40:23.156Z,2.35
2022-08-11T00:41:09.598Z,1.88
2022-08-11T00:41:59.617Z,1.65
2022-08-11T00:42:44.012Z,2.03
2022-08-11T00:43:20.667Z,2.42
2022-08-11T00:44:10.852Z,1.95
2022-08-11T00:44:49.911Z,1.93
2022-08-11T00:45:21.303Z,2.05
2022-08-11T00:45:55.505Z,2.00
2022-08-11T00:46:26.888Z,2.10
2022-08-11T00:47:17.964Z,1.80
2022-08-11T00:47:49.361Z,2.05
2022-08-11T00:48:33.257Z,1.87
2022-08-11T00:49:23.481Z,2.10
2022-08-11T00:50:01.053Z,2.33
2022-08-11T00:50:49.295Z,2.30
2022-08-11T00:52:04.108Z,1.80
2022-08-11T00:52:30.082Z,2.47
2022-08-11T00:53:07.785Z,2.28
2022-08-11T00:54:05.341Z,2.28
2022-08-11T00:54:39.749Z,1.85
2022-08-11T00:55:29.720Z,2.03
2022-08-11T00:56:14.205Z,2.08
2022-08-11T00:57:00.700Z,1.98
2022-08-11T00:57:37.097Z,2.03
2022-08-11T00:58:27.787Z,1.90
2022-08-11T00:59:34.365Z,2.00
2022-08-11T01:00:03.808Z,2.03
2022-08-11T01:00:53.996Z,2.17
2022-08-11T01:01:28.541Z,1.70
2022-08-11T01:02:19.585Z,2.70
2022-08-11T01:02:50.953Z,2.13
2022-08-11T01:03:25.534Z,1.75
2022-08-11T01:04:20.160Z,2.42
2022-08-11T01:04:57.490Z,2.03
2022-08-11T01:05:43.365Z,2.17
2022-08-11T01:06:17.568Z,2.25
2022-08-11T01:06:51.716Z,2.10
2022-08-11T01:08:01.499Z,2.33
2022-08-11T01:08:42.159Z,2.33
2022-08-11T01:09:28.083Z,2.67
2022-08-11T01:10:23.221Z,2.25
2022-08-11T01:11:01.974Z,2.22
2022-08-11T01:11:55.439Z,2.65
2022-08-11T01:12:39.924Z,1.87
2022-08-11T01:13:30.051Z,2.00
2022-08-11T01:14:34.311Z,2.38
2022-08-11T01:15:24.848Z,2.35
2022-08-11T01:16:05.854Z,2.10
2022-08-11T01:16:40.264Z,2.45
2022-08-11T01:17:26.665Z,2.20
2022-08-11T01:18:16.616Z,2.92
2022-08-11T01:19:04.494Z,2.38
2022-08-11T01:20:45.248Z,1.80
2022-08-11T01:20:48.610Z,1.80
2022-08-11T01:21:26.733Z,2.35
2022-08-11T01:22:08.393Z,3.55
2022-08-11T01:22:39.756Z,2.05
2022-08-11T01:23:12.406Z,2.35
2022-08-11T01:24:02.831Z,2.05
2022-08-11T01:24:52.923Z,1.83
2022-08-11T01:25:57.219Z,2.10
2022-08-11T01:26:44.491Z,2.10
2022-08-11T01:27:33.022Z,2.20
2022-08-11T01:28:18.183Z,2.83
2022-08-11T01:29:09.828Z,2.53
2022-08-11T01:29:41.215Z,2.30
2022-08-11T01:30:39.448Z,2.53
2022-08-11T01:31:29.574Z,2.55
2022-08-11T01:32:21.184Z,2.53
2022-08-11T01:32:55.592Z,2.50
2022-08-11T01:33:29.788Z,2.28
2022-08-11T01:34:01.172Z,2.63
2022-08-11T01:34:51.304Z,2.60
2022-08-11T01:35:34.943Z,2.40
2022-08-11T01:36:14.694Z,2.05
2022-08-11T01:36:57.905Z,2.95
2022-08-11T01:37:44.254Z,2.03
2022-08-11T01:38:21.474Z,2.20
2022-08-11T01:39:11.421Z,1.92
2022-08-11T01:39:46.003Z,3.25
2022-08-11T01:40:23.337Z,2.45
2022-08-11T01:40:57.480Z,2.63
2022-08-11T01:41:31.595Z,2.13
2022-08-11T01:42:05.740Z,2.47
2022-08-11T01:42:43.014Z,3.50
2022-08-11T01:43:28.774Z,3.28
2022-08-11T01:44:32.434Z,2.80
2022-08-11T01:45:25.789Z,2.57
2022-08-11T01:45:59.988Z,2.22
2022-08-11T01:46:33.679Z,2.85
2022-08-11T01:47:20.151Z,2.80
2022-08-11T01:48:10.889Z,2.57
2022-08-11T01:48:48.072Z,2.70
2022-08-11T01:50:09.499Z,2.95
2022-08-11T01:50:26.256Z,2.67
2022-08-11T01:51:17.183Z,2.92
2022-08-11T01:52:07.003Z,3.45
2022-08-11T01:52:47.287Z,3.08
2022-08-11T01:53:37.245Z,3.47
2022-08-11T01:54:30.098Z,2.77
2022-08-11T01:55:10.531Z,2.42
2022-08-11T01:55:52.169Z,2.80
2022-08-11T01:56:33.710Z,2.63
2022-08-11T01:57:34.218Z,2.55
2022-08-11T01:58:12.960Z,2.30
2022-08-11T01:58:47.428Z,2.33
2022-08-11T01:59:45.033Z,2.85
2022-08-11T02:00:19.140Z,2.78
2022-08-11T02:00:53.432Z,2.67
2022-08-11T02:01:36.761Z,2.55
2022-08-11T02:02:26.872Z,2.88
2022-08-11T02:03:07.079Z,2.90
2022-08-11T02:04:01.758Z,2.88
2022-08-11T02:04:39.185Z,2.40
2022-08-11T02:05:25.525Z,2.70
2022-08-11T02:06:15.342Z,3.08
2022-08-11T02:06:55.902Z,2.50
2022-08-11T02:07:33.027Z,2.75
2022-08-11T02:08:11.634Z,2.85
2022-08-11T02:08:55.738Z,2.80
2022-08-11T02:09:33.716Z,2.78
2022-08-11T02:10:23.292Z,2.30
2022-08-11T02:11:04.610Z,2.40
2022-08-11T02:11:37.900Z,2.92
2022-08-11T02:12:16.210Z,2.33
2022-08-11T02:12:52.600Z,3.10
2022-08-11T02:13:30.967Z,2.55
2022-08-11T02:14:27.381Z,2.75
2022-08-11T02:15:06.847Z,1.98
2022-08-11T02:15:41.982Z,2.35
2022-08-11T02:16:13.327Z,3.45
2022-08-11T02:17:01.854Z,2.08
2022-08-11T02:17:56.279Z,2.72
2022-08-11T02:18:33.457Z,2.90
2022-08-11T02:19:12.180Z,2.55
2022-08-11T02:20:02.336Z,2.67
2022-08-11T02:20:54.974Z,3.17
2022-08-11T02:21:52.792Z,2.45
2022-08-11T02:22:42.685Z,2.50
2022-08-11T02:23:23.908Z,2.67
2022-08-11T02:24:17.725Z,2.53
2022-08-11T02:25:09.333Z,2.42
2022-08-11T02:25:46.315Z,2.30
2022-08-11T02:26:22.654Z,2.50
2022-08-11T02:27:16.235Z,2.67
2022-08-11T02:27:54.836Z,2.33
2022-08-11T02:28:34.640Z,3.40
2022-08-11T02:29:20.527Z,2.88
2022-08-11T02:30:06.134Z,2.60
2022-08-11T02:30:39.174Z,2.60
2022-08-11T02:32:10.903Z,3.25
2022-08-11T02:32:24.779Z,3.00
2022-08-11T02:33:10.729Z,3.30
2022-08-11T02:33:42.188Z,3.50
2022-08-11T02:34:19.131Z,3.78
2022-08-11T02:34:59.774Z,2.80
2022-08-11T02:35:50.371Z,2.70
2022-08-11T02:36:24.469Z,2.70
2022-08-11T02:37:00.568Z,2.80
2022-08-11T02:37:31.941Z,2.50
2022-08-11T02:38:22.284Z,2.70
2022-08-11T02:39:00.413Z,2.83
2022-08-11T02:39:37.905Z,2.75
2022-08-11T02:40:23.159Z,2.15
2022-08-11T02:41:09.829Z,3.13
2022-08-11T02:41:44.018Z,2.85
2022-08-11T02:42:36.189Z,2.63
2022-08-11T02:43:16.652Z,4.38
2022-08-11T02:44:20.762Z,2.80
2022-08-11T02:44:58.053Z,2.92
2022-08-11T02:45:37.492Z,3.42
2022-08-11T02:46:18.615Z,3.15
2022-08-11T02:47:08.694Z,3.38
2022-08-11T02:47:58.638Z,2.72
2022-08-11T02:48:38.388Z,2.75
2022-08-11T02:49:18.469Z,3.17
2022-08-11T02:50:07.508Z,2.95
2022-08-11T02:50:57.959Z,2.90
2022-08-11T02:51:37.073Z,2.72
2022-08-11T02:52:14.204Z,3.72
2022-08-11T02:52:45.570Z,2.40
2022-08-11T02:53:21.427Z,2.90
2022-08-11T02:54:11.497Z,3.97
2022-08-11T02:54:54.847Z,2.83
2022-08-11T02:55:57.430Z,2.83
2022-08-11T02:56:29.580Z,3.45
2022-08-11T02:57:11.530Z,3.08
2022-08-11T02:57:43.091Z,3.40
2022-08-11T02:58:17.874Z,3.60
2022-08-11T02:59:06.329Z,3.30
2022-08-11T02:59:47.891Z,3.50
2022-08-11T03:00:19.649Z,3.25
2022-08-11T03:01:03.102Z,3.08
2022-08-11T03:02:04.793Z,3.17
2022-08-11T03:02:47.250Z,3.33
2022-08-11T03:03:25.452Z,3.85
2022-08-11T03:04:09.730Z,4.40
2022-08-11T03:04:48.437Z,3.58
2022-08-11T03:05:38.610Z,2.50
2022-08-11T03:06:19.524Z,3.67
2022-08-11T03:06:57.519Z,3.47
2022-08-11T03:07:55.459Z,2.95
2022-08-11T03:08:45.284Z,3.38
2022-08-11T03:09:25.017Z,3.10
2022-08-11T03:10:14.948Z,3.28
2022-08-11T03:11:07.315Z,4.38
2022-08-11T03:11:53.970Z,3.78
2022-08-11T03:12:40.753Z,3.58
2022-08-11T03:13:18.963Z,3.45
2022-08-11T03:14:09.191Z,3.30
2022-08-11T03:14:54.542Z,3.78
2022-08-11T03:15:32.014Z,3.55
2022-08-11T03:16:09.255Z,4.07
2022-08-11T03:16:51.913Z,3.63
2022-08-11T03:17:36.343Z,4.10
2022-08-11T03:18:26.423Z,3.95
2022-08-11T03:19:16.770Z,4.72
2022-08-11T03:19:57.323Z,3.58
2022-08-11T03:20:33.240Z,3.83
2022-08-11T03:21:17.217Z,3.40
2022-08-11T03:22:03.263Z,4.05
2022-08-11T03:22:47.134Z,4.13
2022-08-11T03:23:24.357Z,4.00
2022-08-11T03:24:01.321Z,4.57
2022-08-11T03:24:38.764Z,4.43
2022-08-11T03:25:17.011Z,5.00
2022-08-11T03:25:54.926Z,4.65
2022-08-11T03:26:46.591Z,4.32
2022-08-11T03:27:38.167Z,4.05
2022-08-11T03:28:12.856Z,4.30
2022-08-11T03:29:01.388Z,3.95
2022-08-11T03:29:37.501Z,3.92
2022-08-11T03:30:24.715Z,3.38
2022-08-11T03:31:14.334Z,3.40
2022-08-11T03:32:04.085Z,4.68
2022-08-11T03:32:54.125Z,4.30
2022-08-11T03:33:28.722Z,4.85
2022-08-11T03:34:06.302Z,4.43
2022-08-11T03:34:39.599Z,4.10
2022-08-11T03:35:21.292Z,4.28
2022-08-11T03:36:13.302Z,4.63
2022-08-11T03:37:17.040Z,5.25
2022-08-11T03:37:56.577Z,4.78
2022-08-11T03:38:34.705Z,4.43
2022-08-11T03:39:06.045Z,4.20
2022-08-11T03:39:40.312Z,5.03
2022-08-11T03:40:43.644Z,4.72
2022-08-11T03:42:01.220Z,5.07
2022-08-11T03:42:42.379Z,4.78
2022-08-11T03:43:28.866Z,4.68
2022-08-11T03:44:10.214Z,5.33
2022-08-11T03:44:41.588Z,5.15
2022-08-11T03:45:31.510Z,4.93
2022-08-11T03:46:12.177Z,5.60
2022-08-11T03:46:52.749Z,5.35
2022-08-11T03:47:30.480Z,5.65
2022-08-11T03:48:01.861Z,4.67
2022-08-11T03:48:49.082Z,6.35
2022-08-11T03:49:38.986Z,5.93
2022-08-11T03:50:17.170Z,5.85
2022-08-11T03:51:07.349Z,5.43
2022-08-11T03:51:52.135Z,5.20
2022-08-11T03:52:23.756Z,5.50
2022-08-11T03:53:05.135Z,5.05
2022-08-11T03:53:55.387Z,5.75
2022-08-11T03:54:26.741Z,5.05
2022-08-11T03:55:16.568Z,5.93
2022-08-11T03:56:06.664Z,4.55
2022-08-11T03:56:56.761Z,5.53
2022-08-11T03:57:44.980Z,5.18
2022-08-11T03:58:16.335Z,5.50
2022-08-11T03:59:02.719Z,5.28
2022-08-11T04:00:03.305Z,4.43
2022-08-11T04:00:50.077Z,5.22
2022-08-11T04:01:36.532Z,5.32
2022-08-11T04:02:13.796Z,5.53
2022-08-11T04:03:03.817Z,5.15
2022-08-11T04:03:52.639Z,5.13
2022-08-11T04:04:42.528Z,4.90
2022-08-11T04:05:27.799Z,4.90
2022-08-11T04:06:13.924Z,4.93
2022-08-11T04:06:54.440Z,4.50
2022-08-11T04:07:44.412Z,4.57
2022-08-11T04:08:34.828Z,3.65
2022-08-11T04:09:21.269Z,4.30
2022-08-11T04:10:05.777Z,3.83
2022-08-11T04:10:48.310Z,4.57
2022-08-11T04:11:19.664Z,3.90
2022-08-11T04:12:11.498Z,4.88
2022-08-11T04:12:50.785Z,4.18
2022-08-11T04:13:41.227Z,4.80
2022-08-11T04:14:31.151Z,4.15
2022-08-11T04:15:31.890Z,3.75
2022-08-11T04:16:11.806Z,3.23
2022-08-11T04:16:52.556Z,3.72
2022-08-11T04:17:35.924Z,4.28
2022-08-11T04:18:20.061Z,3.65
2022-08-11T04:19:10.076Z,3.90
2022-08-11T04:19:56.161Z,3.83
2022-08-11T04:20:30.439Z,4.25
2022-08-11T04:21:20.526Z,3.33
2022-08-11T04:22:15.237Z,4.30
2022-08-11T04:22:49.732Z,3.25
2022-08-11T04:24:37.065Z,3.15
2022-08-11T04:24:47.051Z,3.72
2022-08-11T04:25:24.104Z,3.63
2022-08-11T04:26:18.653Z,3.67
2022-08-11T04:27:14.347Z,3.63
2022-08-11T04:28:01.195Z,3.77
2022-08-11T04:28:53.709Z,2.97
2022-08-11T04:30:03.865Z,3.45
2022-08-11T04:30:55.275Z,3.38
2022-08-11T04:31:50.868Z,3.67
2022-08-11T04:32:36.243Z,3.63
2022-08-11T04:33:36.961Z,3.30
2022-08-11T04:34:26.822Z,3.67
2022-08-11T04:35:16.752Z,2.80
2022-08-11T04:35:51.452Z,3.40
2022-08-11T04:36:22.913Z,3.40
2022-08-11T04:36:57.414Z,3.60
2022-08-11T04:37:51.382Z,3.30
2022-08-11T04:38:43.554Z,3.55
2022-08-11T04:39:23.814Z,3.30
2022-08-11T04:39:57.907Z,3.10
2022-08-11T04:40:35.335Z,3.70
2022-08-11T04:41:20.894Z,3.20
2022-08-11T04:42:10.615Z,2.72
2022-08-11T04:42:42.012Z,3.05
2022-08-11T04:44:02.728Z,3.00
2022-08-11T04:44:56.681Z,2.90
2022-08-11T04:45:37.193Z,3.23
2022-08-11T04:46:14.430Z,3.22
2022-08-11T04:46:57.744Z,3.42
2022-08-11T04:48:03.317Z,3.08
2022-08-11T04:48:47.792Z,3.13
2022-08-11T04:49:25.835Z,3.13
2022-08-11T04:50:10.419Z,3.17
2022-08-11T04:51:00.688Z,2.85
2022-08-11T04:51:41.901Z,2.78
2022-08-11T04:52:25.472Z,3.25
2022-08-11T04:53:33.576Z,3.20
2022-08-11T04:54:07.991Z,2.30
2022-08-11T04:54:57.950Z,2.90
2022-08-11T04:55:29.371Z,2.33
2022-08-11T04:56:03.547Z,3.00
2022-08-11T04:56:36.417Z,2.65
2022-08-11T04:57:20.451Z,2.40
2022-08-11T04:58:10.523Z,2.10
2022-08-11T04:58:51.743Z,1.52
2022-08-11T04:59:23.126Z,1.73
2022-08-11T05:00:00.349Z,2.42
2022-08-11T05:00:38.543Z,2.08
2022-08-11T05:01:28.376Z,2.30
2022-08-11T05:01:59.880Z,2.30
2022-08-11T05:02:34.314Z,1.55
2022-08-11T05:03:08.516Z,2.05
2022-08-11T05:04:00.170Z,1.95
2022-08-11T05:04:45.637Z,1.95
2022-08-11T05:05:29.008Z,1.95
2022-08-11T05:06:00.402Z,2.05
2022-08-11T05:07:07.318Z,1.77
2022-08-11T05:07:44.667Z,2.33
2022-08-11T05:08:24.022Z,2.22
2022-08-11T05:09:07.489Z,2.83
2022-08-11T05:09:57.409Z,4.40
2022-08-11T05:10:43.063Z,3.53
2022-08-11T05:11:33.664Z,2.15
2022-08-11T05:12:17.339Z,2.60
2022-08-11T05:12:48.773Z,1.88
2022-08-11T05:13:33.928Z,1.88
2022-08-11T05:14:11.311Z,2.13
2022-08-11T05:14:50.536Z,1.80
2022-08-11T05:15:31.233Z,1.80
2022-08-11T05:16:17.168Z,1.50
2022-08-11T05:16:51.776Z,1.85
2022-08-11T05:17:27.662Z,2.10
2022-08-11T05:18:02.481Z,1.80
2022-08-11T05:18:37.231Z,1.80
2022-08-11T05:19:16.228Z,1.13
2022-08-11T05:19:48.874Z,2.05
2022-08-11T05:20:21.492Z,2.05
2022-08-11T05:20:55.696Z,1.80
2022-08-11T05:21:27.220Z,2.28
2022-08-11T05:21:58.772Z,2.78
2022-08-11T05:22:31.085Z,2.65
2022-08-11T05:23:04.858Z,2.97
2022-08-11T05:23:40.341Z,2.20
2022-08-11T05:24:22.895Z,2.05
2022-08-11T05:25:03.190Z,2.10
2022-08-11T05:26:42.670Z,1.58
2022-08-11T05:26:46.878Z,1.48
2022-08-11T05:27:19.490Z,2.53
2022-08-11T05:27:50.873Z,1.85
2022-08-11T05:28:25.952Z,2.33
2022-08-11T05:29:08.292Z,2.15
2022-08-11T05:29:59.226Z,1.75
2022-08-11T05:30:34.401Z,1.88
2022-08-11T05:31:08.678Z,1.88
2022-08-11T05:31:43.482Z,1.30
2022-08-11T05:32:16.817Z,1.48
2022-08-11T05:33:00.911Z,1.40
2022-08-11T05:33:35.530Z,1.48
2022-08-11T05:34:17.800Z,1.48
2022-08-11T05:34:52.165Z,1.42
2022-08-11T05:36:00.756Z,1.83
2022-08-11T05:36:20.475Z,0.82
2022-08-11T05:37:17.110Z,1.40
2022-08-11T05:37:49.106Z,1.75
2022-08-11T05:38:22.802Z,1.55
2022-08-11T05:38:58.391Z,1.48
2022-08-11T05:39:36.250Z,1.50
2022-08-11T05:40:12.734Z,1.65
2022-08-11T05:40:51.405Z,1.55
2022-08-11T05:41:31.586Z,1.90
2022-08-11T05:42:05.062Z,10.98
2022-08-11T05:42:42.997Z,5.55
2022-08-11T05:43:15.007Z,1.92
2022-08-11T05:44:20.176Z,1.70
2022-08-11T05:44:39.177Z,1.10
2022-08-11T05:45:15.899Z,1.65
2022-08-11T05:46:04.647Z,1.88
2022-08-11T05:46:43.248Z,1.88
2022-08-11T05:47:22.047Z,1.95
2022-08-11T05:47:53.579Z,1.27
2022-08-11T05:48:29.940Z,2.00
2022-08-11T05:49:01.989Z,1.33
2022-08-11T05:49:34.466Z,1.50
2022-08-11T05:50:08.449Z,1.83
2022-08-11T05:50:52.090Z,1.88
2022-08-11T05:51:33.186Z,1.70
2022-08-11T05:52:05.901Z,2.03
2022-08-11T05:52:49.280Z,3.22
2022-08-11T05:53:27.208Z,6.55
2022-08-11T05:54:01.108Z,2.63
2022-08-11T05:54:33.522Z,2.05
2022-08-11T05:55:07.241Z,2.50
2022-08-11T05:56:01.953Z,1.83
2022-08-11T05:56:40.856Z,1.40
2022-08-11T05:57:45.487Z,1.35
2022-08-11T05:58:16.745Z,2.30
2022-08-11T05:58:52.744Z,1.30
2022-08-11T05:59:25.046Z,1.70
2022-08-11T06:00:00.192Z,2.13
2022-08-11T06:00:40.936Z,1.52
2022-08-11T06:01:13.955Z,1.83
2022-08-11T06:01:46.324Z,1.20
2022-08-11T06:02:18.418Z,1.67
2022-08-11T06:02:52.064Z,1.67
2022-08-11T06:03:26.695Z,1.48
2022-08-11T06:03:59.392Z,1.50
2022-08-11T06:04:31.489Z,2.28
2022-08-11T06:05:03.096Z,1.70
2022-08-11T06:05:43.196Z,1.60
2022-08-11T06:06:15.637Z,1.60
2022-08-11T06:06:59.364Z,2.03
2022-08-11T06:07:49.602Z,2.17
2022-08-11T06:08:28.193Z,1.75
2022-08-11T06:09:00.373Z,1.45
2022-08-11T06:09:36.378Z,1.52
2022-08-11T06:10:08.434Z,1.80
2022-08-11T06:10:41.976Z,2.08
2022-08-11T06:11:13.622Z,1.87
2022-08-11T06:11:45.237Z,2.88
2022-08-11T06:12:28.318Z,1.90
2022-08-11T06:13:00.748Z,1.45
2022-08-11T06:13:32.380Z,1.70
2022-08-11T06:14:03.920Z,1.38
2022-08-11T06:14:41.108Z,2.25
2022-08-11T06:15:13.292Z,2.00
2022-08-11T06:15:50.606Z,1.50
2022-08-11T06:16:23.081Z,1.23
2022-08-11T06:16:56.378Z,1.95
2022-08-11T06:17:38.814Z,2.17
2022-08-11T06:18:12.226Z,2.60
2022-08-11T06:18:47.770Z,2.55
2022-08-11T06:19:20.137Z,2.00
2022-08-11T06:19:51.917Z,2.47
2022-08-11T06:20:23.594Z,1.90
2022-08-11T06:20:56.763Z,1.85
2022-08-11T06:21:28.185Z,2.33
2022-08-11T06:22:01.374Z,1.60
2022-08-11T06:22:33.373Z,1.80
2022-08-11T06:23:06.688Z,2.22
2022-08-11T06:23:38.342Z,1.48
2022-08-11T06:24:16.033Z,1.75
2022-08-11T06:24:52.020Z,2.28
2022-08-11T06:25:29.851Z,1.75
2022-08-11T06:26:01.526Z,2.07
2022-08-11T06:26:44.766Z,1.42
2022-08-11T06:27:25.214Z,2.17
2022-08-11T06:27:56.823Z,1.70
2022-08-11T06:28:32.593Z,1.90
2022-08-11T06:29:05.565Z,1.80
2022-08-11T06:29:47.692Z,2.00
2022-08-11T06:30:32.498Z,1.67
2022-08-11T06:31:14.128Z,1.30
2022-08-11T06:31:59.906Z,2.10
2022-08-11T06:32:33.011Z,1.85
2022-08-11T06:33:06.779Z,1.75
2022-08-11T06:33:44.868Z,2.25
2022-08-11T06:34:27.420Z,1.48
2022-08-11T06:35:01.926Z,1.58
2022-08-11T06:35:33.310Z,1.42
2022-08-11T06:36:17.395Z,1.90
2022-08-11T06:36:55.435Z,2.03
2022-08-11T06:37:40.842Z,2.50
2022-08-11T06:38:32.530Z,2.05
2022-08-11T06:39:12.917Z,1.85
2022-08-11T06:39:47.551Z,1.70
2022-08-11T06:40:37.558Z,1.98
2022-08-11T06:41:27.520Z,1.90
2022-08-11T06:42:13.851Z,1.88
2022-08-11T06:42:51.646Z,3.28
2022-08-11T06:43:24.267Z,2.15
2022-08-11T06:44:14.114Z,1.63
2022-08-11T06:45:01.284Z,2.15
2022-08-11T06:45:37.023Z,2.78
2022-08-11T06:46:09.851Z,2.30
2022-08-11T06:46:42.627Z,1.95
2022-08-11T06:47:15.878Z,1.85
2022-08-11T06:47:47.669Z,2.10
2022-08-11T06:48:20.710Z,1.65
2022-08-11T06:48:53.625Z,1.90
2022-08-11T06:49:35.312Z,3.20
2022-08-11T06:50:07.052Z,5.47
2022-08-11T06:50:38.544Z,6.50
2022-08-11T06:51:10.748Z,2.22
2022-08-11T06:51:47.609Z,1.40
2022-08-11T06:52:35.264Z,2.07
2022-08-11T06:53:18.229Z,1.80
2022-08-11T06:54:04.129Z,1.85
2022-08-11T06:54:37.699Z,2.10
2022-08-11T06:55:57.304Z,1.85
2022-08-11T06:56:06.535Z,2.05
2022-08-11T06:56:38.650Z,1.45
2022-08-11T06:57:29.426Z,2.13
2022-08-11T06:58:02.146Z,2.47
2022-08-11T06:58:35.377Z,2.25
2022-08-11T06:59:07.476Z,1.30
2022-08-11T06:59:39.534Z,2.05
2022-08-11T07:00:11.680Z,1.75
2022-08-11T07:00:43.737Z,3.00
2022-08-11T07:01:17.073Z,2.58
2022-08-11T07:01:54.385Z,1.70
2022-08-11T07:02:31.469Z,2.50
2022-08-11T07:03:06.282Z,1.90
2022-08-11T07:03:40.068Z,3.95
2022-08-11T07:04:12.876Z,1.65
2022-08-11T07:05:01.281Z,1.75
2022-08-11T07:05:32.662Z,2.88
2022-08-11T07:06:51.055Z,1.70
2022-08-11T07:07:48.548Z,1.40
2022-08-11T07:08:34.735Z,1.30
2022-08-11T07:09:14.105Z,1.63
2022-08-11T07:09:51.285Z,2.03
2022-08-11T07:10:37.871Z,2.38
2022-08-11T07:11:27.281Z,2.00
2022-08-11T07:12:01.418Z,1.50
2022-08-11T07:12:32.855Z,1.25
2022-08-11T07:13:04.711Z,1.90
2022-08-11T07:13:44.786Z,1.88
2022-08-11T07:14:20.900Z,1.57
2022-08-11T07:14:53.159Z,1.65
2022-08-11T07:16:10.820Z,1.55
2022-08-11T07:16:27.141Z,2.33
2022-08-11T07:16:59.521Z,1.90
2022-08-11T07:17:31.823Z,1.38
2022-08-11T07:18:04.666Z,1.95
2022-08-11T07:18:37.607Z,1.63
2022-08-11T07:19:09.425Z,1.90
2022-08-11T07:19:43.310Z,1.23
2022-08-11T07:20:15.324Z,2.38
2022-08-11T07:20:47.189Z,3.20
2022-08-11T07:21:50.575Z,3.05
2022-08-11T07:22:22.724Z,1.67
2022-08-11T07:22:58.169Z,1.50
2022-08-11T07:23:31.960Z,1.95
2022-08-11T07:24:07.498Z,1.55
2022-08-11T07:25:01.861Z,1.63
2022-08-11T07:25:36.549Z,1.43
2022-08-11T07:26:08.349Z,1.75
2022-08-11T07:26:42.445Z,1.80
2022-08-11T07:27:15.661Z,1.38
2022-08-11T07:27:48.700Z,2.70
2022-08-11T07:28:28.023Z,1.13
2022-08-11T07:29:01.289Z,2.47
2022-08-11T07:29:32.950Z,0.90
2022-08-11T07:30:06.313Z,1.80
2022-08-11T07:30:40.375Z,1.98
2022-08-11T07:31:13.808Z,1.65
2022-08-11T07:31:49.957Z,1.83
2022-08-11T07:32:26.821Z,1.92
2022-08-11T07:33:00.823Z,2.00
2022-08-11T07:34:08.333Z,1.25
2022-08-11T07:34:35.953Z,1.80
2022-08-11T07:35:12.348Z,1.85
2022-08-11T07:35:45.788Z,1.40
2022-08-11T07:36:17.903Z,1.75
2022-08-11T07:36:51.274Z,1.35
2022-08-11T07:37:24.362Z,2.08
2022-08-11T07:38:01.783Z,0.98
2022-08-11T07:38:39.301Z,2.00
2022-08-11T07:39:17.110Z,1.20
2022-08-11T07:39:49.298Z,1.77
2022-08-11T07:40:24.572Z,1.50
2022-08-11T07:40:57.809Z,1.45
2022-08-11T07:41:34.103Z,1.20
2022-08-11T07:42:07.008Z,1.00
2022-08-11T07:42:38.684Z,1.50
2022-08-11T07:43:12.040Z,1.90
2022-08-11T07:43:44.886Z,2.15
2022-08-11T07:44:16.930Z,1.85
2022-08-11T07:44:49.338Z,1.70
2022-08-11T07:45:21.021Z,1.83
2022-08-11T07:45:52.639Z,1.73
2022-08-11T07:46:24.140Z,1.38
2022-08-11T07:46:56.151Z,1.45
2022-08-11T07:47:27.808Z,1.95
2022-08-11T07:48:00.148Z,1.90
2022-08-11T07:48:33.337Z,1.38
2022-08-11T07:49:05.873Z,1.60
2022-08-11T07:49:38.237Z,1.70
2022-08-11T07:50:10.316Z,1.00
2022-08-11T07:50:42.980Z,0.93
2022-08-11T07:51:18.629Z,1.52
2022-08-11T07:51:50.619Z,1.42
2022-08-11T07:52:22.277Z,1.75
2022-08-11T07:52:54.008Z,1.55
2022-08-11T07:53:26.471Z,1.50
2022-08-11T07:54:07.456Z,1.30
2022-08-11T07:54:51.142Z,1.20
2022-08-11T07:55:48.885Z,1.55
2022-08-11T07:56:17.313Z,1.83
2022-08-11T07:56:55.255Z,1.25
2022-08-11T07:58:14.277Z,1.50
2022-08-11T07:58:23.136Z,1.83
2022-08-11T07:59:04.248Z,1.40
2022-08-11T08:00:02.722Z,2.00
2022-08-11T08:00:35.685Z,1.50
2022-08-11T08:01:10.065Z,1.98
2022-08-11T08:01:42.373Z,1.77
2022-08-11T08:02:13.961Z,2.25
2022-08-11T08:02:45.724Z,1.60
2022-08-11T08:03:17.242Z,1.77
2022-08-11T08:03:54.767Z,1.58
2022-08-11T08:04:26.433Z,1.88
2022-08-11T08:04:58.534Z,1.67
2022-08-11T08:05:30.539Z,1.70
2022-08-11T08:06:01.981Z,1.67
2022-08-11T08:06:36.049Z,1.40
2022-08-11T08:07:08.182Z,1.30
2022-08-11T08:07:39.744Z,1.42
2022-08-11T08:08:11.511Z,1.80
2022-08-11T08:08:43.593Z,1.93
2022-08-11T08:09:16.937Z,1.55
2022-08-11T08:09:49.180Z,1.67
2022-08-11T08:10:20.715Z,2.03
2022-08-11T08:10:52.348Z,2.28
2022-08-11T08:11:27.516Z,1.40
2022-08-11T08:12:00.675Z,1.15
2022-08-11T08:12:32.702Z,2.00
2022-08-11T08:13:05.072Z,5.85
2022-08-11T08:13:37.250Z,6.03
2022-08-11T08:14:09.547Z,3.63
2022-08-11T08:14:41.125Z,2.20
2022-08-11T08:15:14.093Z,1.38
2022-08-11T08:15:45.641Z,1.50
2022-08-11T08:16:17.216Z,2.10
2022-08-11T08:16:48.679Z,1.27
2022-08-11T08:17:21.479Z,1.65
2022-08-11T08:18:09.162Z,2.20
2022-08-11T08:18:44.927Z,1.40
2022-08-11T08:19:18.923Z,2.35
2022-08-11T08:19:50.776Z,1.05
2022-08-11T08:20:23.952Z,4.65
2022-08-11T08:20:56.680Z,2.55
2022-08-11T08:21:28.313Z,1.83
2022-08-11T08:22:34.668Z,1.37
2022-08-11T08:22:52.891Z,1.70
2022-08-11T08:23:26.639Z,1.98
2022-08-11T08:23:58.379Z,1.48
2022-08-11T08:24:30.075Z,1.42
2022-08-11T08:25:01.913Z,1.70
2022-08-11T08:25:36.130Z,1.80
2022-08-11T08:26:13.561Z,1.60
2022-08-11T08:26:51.792Z,1.45
2022-08-11T08:27:23.483Z,1.80
2022-08-11T08:27:55.430Z,1.50
2022-08-11T08:28:32.177Z,1.10
2022-08-11T08:29:05.904Z,1.52
2022-08-11T08:29:37.841Z,1.50
2022-08-11T08:30:09.498Z,1.83
2022-08-11T08:30:41.746Z,1.23
2022-08-11T08:31:13.752Z,1.63
2022-08-11T08:31:46.110Z,1.83
2022-08-11T08:32:18.176Z,1.60
2022-08-11T08:32:49.959Z,1.23
2022-08-11T08:33:23.139Z,1.45
2022-08-11T08:33:54.780Z,1.80
2022-08-11T08:34:26.810Z,1.15
2022-08-11T08:34:59.498Z,1.48
2022-08-11T08:35:33.133Z,2.30
2022-08-11T08:36:05.643Z,1.83
2022-08-11T08:36:37.525Z,1.45
2022-08-11T08:37:15.988Z,1.35
2022-08-11T08:38:00.683Z,1.90
2022-08-11T08:38:32.117Z,1.27
2022-08-11T08:39:03.567Z,1.63
2022-08-11T08:39:35.324Z,2.17
2022-08-11T08:40:07.623Z,1.25
2022-08-11T08:40:41.643Z,1.27
2022-08-11T08:41:16.458Z,1.98
2022-08-11T08:41:50.873Z,2.95
2022-08-11T08:42:27.187Z,2.35
2022-08-11T08:43:02.517Z,2.05
2022-08-11T08:43:48.772Z,1.83
2022-08-11T08:44:37.951Z,1.50
2022-08-11T08:45:13.382Z,0.80
2022-08-11T08:45:45.077Z,1.50
2022-08-11T08:46:19.226Z,2.00
2022-08-11T08:46:54.183Z,1.90
2022-08-11T08:47:43.073Z,2.10
2022-08-11T08:48:15.778Z,1.80
2022-08-11T08:48:47.351Z,2.00
2022-08-11T08:49:22.045Z,1.13
2022-08-11T08:50:09.802Z,1.40
2022-08-11T08:50:53.463Z,1.58
2022-08-11T08:51:24.902Z,2.20
2022-08-11T08:52:18.600Z,1.35
2022-08-11T08:52:54.414Z,1.52
2022-08-11T08:53:27.993Z,1.40